Flight Track Log - Related Links

Times and Time Zones

All times are in EDT time to prevent confusion due to time zone crossing. See the UAL395 flight status page for this flight to view local times or setup timezone preferences in your user account.

Time Position Orientation Groundspeed Altitude Reporting Facility
EDT Latitude Longitude Course Direction KTS MPH feet Rate Location/Type
Mon 06:17:55 PM 41.9000 -87.9333 200° South 214 246 3,700  Level Chicago TRACON
Mon 06:18:50 PM 41.8333 -87.9500 191° South 257 296 5,500 2,400 Climbing Chicago TRACON
Mon 06:19:20 PM 41.8008 -87.9664 201° Southwest 257 296 7,100 3,000 Climbing Chicago Center
Mon 06:20:00 PM 41.6102 -88.1807 189° South  Level Estimated
Mon 06:20:22 PM 41.7236 -87.9772 186° South 278 320 10,100  Level Chicago Center
Mon 06:21:00 PM 41.5207 -88.1048 148° Southeast  Level FlightAware Approximate
Mon 06:21:24 PM 41.6414 -87.9908 187° South 295 339 12,800  Level Chicago Center
Mon 06:22:00 PM 41.4282 -88.1737 201° Southwest  Level Estimated
Mon 06:22:26 PM 41.5553 -88.0069 188° South 310 357 14,900  Level Chicago Center
Mon 06:23:28 PM 41.4633 -88.0225 187° South 330 380 15,800 1,210 Climbing Chicago Center
Mon 06:24:30 PM 41.3483 -88.0492 190° South 381 438 17,400 1,790 Climbing Chicago Center
Mon 06:25:32 PM 41.2392 -88.0872 195° South 403 464 19,500 1,984 Climbing Chicago Center
Mon 06:26:34 PM 41.1328 -88.1422 201° Southwest 415 478 21,500 1,873 Climbing Chicago Center
Mon 06:28:25 PM 40.9314 -88.2839 208° Southwest 428 493 24,900 1,779 Climbing Kansas City Center
Mon 06:29:26 PM 40.8192 -88.3581 207° Southwest 440 506 26,600 1,536 Climbing Kansas City Center
Mon 06:30:30 PM 40.7089 -88.4358 208° Southwest 447 514 28,100 1,344 Climbing Kansas City Center
Mon 06:31:31 PM 40.5944 -88.5139 207° Southwest 456 525 29,400 1,475 Climbing Kansas City Center
Mon 06:32:32 PM 40.4767 -88.5931 207° Southwest 468 539 31,100 1,839 Climbing Kansas City Center
Mon 06:33:35 PM 40.3403 -88.6853 207° Southwest 463 533 33,200 1,403 Climbing Kansas City Center
Mon 06:34:36 PM 40.2294 -88.7597 207° Southwest 457 526 34,000 393 Climbing Kansas City Center
Mon 06:35:37 PM 40.1217 -88.8325 207° Southwest 448 516 34,000  Level Kansas City Center
Mon 06:36:41 PM 40.0117 -88.9061 207° Southwest 443 510 34,000  Level Kansas City Center
Mon 06:37:41 PM 39.9000 -88.9792 207° Southwest 446 513 34,000  Level Kansas City Center
Mon 06:38:45 PM 39.7883 -89.0547 207° Southwest 449 517 34,000  Level Kansas City Center
Mon 06:39:45 PM 39.6758 -89.1292 207° Southwest 451 519 34,000  Level Kansas City Center
Mon 06:40:47 PM 39.5417 -89.2150 206° Southwest 448 516 34,000  Level Kansas City Center
Mon 06:41:52 PM 39.4356 -89.2858 207° Southwest 444 511 34,000  Level Kansas City Center
Mon 06:42:52 PM 39.3256 -89.3589 207° Southwest 444 511 34,000  Level Kansas City Center
Mon 06:43:53 PM 39.2172 -89.4308 207° Southwest 440 506 34,000  Level Kansas City Center
Mon 06:44:54 PM 39.0942 -89.5089 206° Southwest 432 497 34,000  Level Kansas City Center
Mon 06:45:58 PM 38.9861 -89.5792 207° Southwest 435 501 34,000  Level Kansas City Center
Mon 06:46:58 PM 38.8697 -89.6536 206° Southwest 434 499 34,000  Level Kansas City Center
Mon 06:48:02 PM 38.7597 -89.7217 206° Southwest 439 505 34,000  Level Kansas City Center
Mon 06:49:02 PM 38.6494 -89.7911 206° Southwest 439 505 34,000  Level Kansas City Center
Mon 06:50:03 PM 38.5394 -89.8608 206° Southwest 438 504 34,000  Level Kansas City Center
Mon 06:51:07 PM 38.4292 -89.9317 207° Southwest 440 506 34,000  Level Kansas City Center
Mon 06:52:08 PM 38.3194 -90.0028 207° Southwest 439 505 34,000  Level Kansas City Center
Mon 06:53:09 PM 38.2067 -90.0711 205° Southwest 443 510 34,000  Level Kansas City Center
Mon 06:54:13 PM 38.0964 -90.1428 207° Southwest 445 512 34,000  Level Kansas City Center
Mon 06:55:13 PM 37.9631 -90.2272 207° Southwest 444 511 34,000  Level Kansas City Center
Mon 06:56:17 PM 37.8536 -90.2975 207° Southwest 441 507 34,000  Level Kansas City Center
Mon 06:57:18 PM 37.7414 -90.3683 207° Southwest 446 513 34,000  Level Kansas City Center
Mon 06:58:19 PM 37.6297 -90.4331 205° Southwest 444 511 34,000  Level Kansas City Center
Mon 06:59:23 PM 37.5189 -90.5056 207° Southwest 447 514 34,000  Level Kansas City Center
Mon 07:00:24 PM 37.4061 -90.5747 206° Southwest 450 518 34,000  Level Kansas City Center
Mon 07:01:25 PM 37.2781 -90.6525 206° Southwest 447 514 34,000  Level Kansas City Center
Mon 07:02:26 PM 37.1653 -90.7211 206° Southwest 449 517 34,000  Level Kansas City Center
Mon 07:03:30 PM 37.0536 -90.7878 205° Southwest 448 516 34,000  Level Kansas City Center
Mon 07:04:30 PM 36.9436 -90.8533 205° Southwest 442 509 34,000  Level Kansas City Center
Mon 07:05:12 PM 36.8411 -90.9169 206° Southwest 450 518 34,000  Level Memphis Center
Mon 07:06:12 PM 36.7303 -90.9833 206° Southwest 445 512 34,000  Level Memphis Center
Mon 07:07:12 PM 36.6175 -91.0525 206° Southwest 445 512 34,000  Level Memphis Center
Mon 07:08:12 PM 36.5067 -91.1133 204° Southwest 445 512 34,000  Level Memphis Center
Mon 07:09:12 PM 36.3914 -91.1869 207° Southwest 453 521 34,000  Level Memphis Center
Mon 07:10:12 PM 36.2764 -91.2528 205° Southwest 458 527 34,000  Level Memphis Center
Mon 07:11:12 PM 36.1675 -91.3211 207° Southwest 453 521 34,000  Level Memphis Center
Mon 07:12:12 PM 36.0522 -91.3892 206° Southwest 453 521 34,000  Level Memphis Center
Mon 07:13:12 PM 35.9369 -91.4542 205° Southwest 453 521 34,000  Level Memphis Center
Mon 07:14:12 PM 35.8239 -91.5194 205° Southwest 453 521 34,000  Level Memphis Center
Mon 07:15:12 PM 35.7106 -91.5869 206° Southwest 447 514 34,000  Level Memphis Center
Mon 07:16:12 PM 35.5931 -91.6567 206° Southwest 447 514 34,000  Level Memphis Center
Mon 07:17:12 PM 35.4756 -91.7236 205° Southwest 452 520 34,000  Level Memphis Center
Mon 07:18:12 PM 35.3581 -91.7903 205° Southwest 463 533 34,000  Level Memphis Center
Mon 07:19:12 PM 35.2425 -91.8572 205° Southwest 463 533 34,000  Level Memphis Center
Mon 07:20:12 PM 35.1269 -91.9186 203° Southwest 463 533 34,000  Level Memphis Center
Mon 07:21:12 PM 35.0014 -91.9542 193° South 463 533 34,000  Level Memphis Center
Mon 07:22:12 PM 34.8717 -91.9822 190° South 463 533 34,000  Level Memphis Center
Mon 07:23:12 PM 34.7461 -92.0125 191° South 468 539 34,000  Level Memphis Center
Mon 07:24:12 PM 34.6225 -92.0406 191° South 468 539 34,000  Level Memphis Center
Mon 07:25:12 PM 34.4969 -92.0708 191° South 468 539 34,000  Level Memphis Center
Mon 07:26:12 PM 34.3736 -92.0986 191° South 468 539 34,000 550 Level Memphis Center
Mon 07:27:12 PM 34.2458 -92.1336 193° South 468 539 35,100 1,000 Climbing Memphis Center
Mon 07:28:12 PM 34.1264 -92.1614 191° South 463 533 36,000 450 Climbing Memphis Center
Mon 07:29:12 PM 34.0236 -92.1942 195° South 448 516 36,000  Level Memphis Center
Mon 07:31:42 PM 33.7069 -92.2678 191° South 446 513 36,000  Level Fort Worth Center
Mon 07:32:42 PM 33.5808 -92.2950 190° South 457 526 36,000  Level Fort Worth Center
Mon 07:33:42 PM 33.4589 -92.3244 191° South 457 526 36,000  Level Fort Worth Center
Mon 07:34:42 PM 33.3369 -92.3539 191° South 457 526 36,000  Level Fort Worth Center
Mon 07:35:42 PM 33.2106 -92.3811 190° South 462 532 36,000  Level Fort Worth Center
Mon 07:36:42 PM 33.0867 -92.4128 192° South 462 532 36,000  Level Fort Worth Center
Mon 07:37:42 PM 32.9628 -92.4419 191° South 462 532 36,000  Level Fort Worth Center
Mon 07:38:42 PM 32.8447 -92.4683 191° South 450 518 36,000  Level Fort Worth Center
Mon 07:40:59 PM 32.5750 -92.5364 192° South 444 511 36,000  Level Houston Center
Mon 07:42:00 PM 32.4547 -92.5633 191° South 442 509 36,000  Level Houston Center
Mon 07:43:02 PM 32.3358 -92.5914 191° South 439 505 36,000  Level Houston Center
Mon 07:44:04 PM 32.2186 -92.6197 192° South 434 499 36,000  Level Houston Center
Mon 07:45:06 PM 32.1000 -92.6478 191° South 435 501 36,000 -48 Level Houston Center
Mon 07:46:08 PM 31.9617 -92.6875 194° South 430 495 35,900  Descending Houston Center
Mon 07:47:09 PM 31.8733 -92.7750 220° Southwest 420 483 36,000 49 Climbing Houston Center
Mon 07:48:11 PM 31.7842 -92.8625 220° Southwest 418 481 36,000  Level Houston Center
Mon 07:49:13 PM 31.6914 -92.9467 218° Southwest 421 484 36,000  Level Houston Center
Mon 07:50:15 PM 31.6006 -93.0339 219° Southwest 422 486 36,000  Level Houston Center
Mon 07:51:17 PM 31.5103 -93.1219 220° Southwest 422 486 36,000 -435 Level Houston Center
Mon 07:52:19 PM 31.4008 -93.2283 220° Southwest 425 489 35,100 -1,113 Descending Houston Center
Mon 07:53:21 PM 31.3108 -93.3136 219° Southwest 425 489 33,700 -1,415 Descending Houston Center
Mon 07:54:22 PM 31.2153 -93.4061 220° Southwest 438 504 32,200 -1,415 Descending Houston Center
Mon 07:55:24 PM 31.1192 -93.4964 219° Southwest 445 512 30,800 -1,452 Descending Houston Center
Mon 07:56:26 PM 31.0228 -93.5886 219° Southwest 449 517 29,200 -1,403 Descending Houston Center
Mon 07:57:28 PM 30.9236 -93.6819 219° Southwest 460 529 27,900 -1,065 Descending Houston Center
Mon 07:58:30 PM 30.8033 -93.7958 219° Southwest 467 537 27,000 -1,597 Descending Houston Center
Mon 07:59:32 PM 30.7083 -93.8894 220° Southwest 461 531 24,600 -2,341 Descending Houston Center
Mon 08:00:33 PM 30.6144 -93.9764 219° Southwest 444 511 22,200 -2,500 Descending Houston Center
Mon 08:01:20 PM 30.5364 -94.0456 217° Southwest 429 494 20,100 -2,323 Descending Houston Center
Mon 08:02:37 PM 30.4317 -94.1439 219° Southwest 420 483 17,400 -2,374 Descending Houston Center
Mon 08:03:39 PM 30.3272 -94.2431 219° Southwest 408 470 14,600 -2,419 Descending Houston Center
Mon 08:04:41 PM 30.2458 -94.3197 219° Southwest 385 443 12,400 -1,306 Descending Houston Center
Mon 08:05:43 PM 30.1911 -94.4108 235° Southwest 357 411 11,900 -537 Descending Houston Center
Mon 08:06:44 PM 30.1742 -94.5069 258° West 340 391 11,300 -837 Descending Houston Center
Mon 08:07:52 PM 30.1492 -94.6369 257° West 294 338 10,100 -1,111 Descending Houston Center
Mon 08:08:59 PM 30.1317 -94.7383 259° West 289 333 8,800 -1,077 Descending Houston Center
Mon 08:09:49 PM 30.1197 -94.8097 259° West 288 331 8,000 -973 Descending Houston Center
Mon 08:10:50 PM 30.1053 -94.9011 260° West 285 328 7,000 -938 Descending Houston Center
Mon 08:11:57 PM 30.1047 -95.0050 270° West 286 329 6,000 -492 Descending Houston Center
Mon 08:12:52 PM 30.1042 -95.0897 270° West 285 328 6,000  Level Houston Center
Mon 08:13:57 PM 30.1064 -95.1817 272° West 275 316 6,000  Level Houston Center
Mon 08:14:59 PM 30.1094 -95.2561 273° West 241 277 6,000  Level Houston Center
Mon 08:16:00 PM 30.1086 -95.3325 269° West 238 274 6,000 -488 Level Houston Center
Mon 08:17:02 PM 30.1081 -95.4064 270° West 234 269 5,000 -1,016 Descending Houston Center
Mon 08:18:04 PM 30.1067 -95.4806 269° West 232 267 3,900 -968 Descending Houston Center
Mon 08:19:06 PM 30.1058 -95.5531 269° West 230 265 3,000 -439 Descending Houston Center
Mon 08:20:07 PM 30.0517 -95.5794 203° Southwest 215 247 3,000  Level Houston Center
Mon 08:21:08 PM 30.0208 -95.5319 127° Southeast 167 192 3,000 -362 Level Houston Center
Mon 08:22:03 PM 30.0061 -95.4853 110° East 167 192 2,300 -836 Descending Houston Center
Mon 08:23:10 PM 30.0075 -95.4297 88° East 148 170 1,300 -787 Descending Houston Center
Mon 08:24:05 PM 30.0061 -95.3936 93° East 124 143 700 -429 Descending Houston Center
Mon 08:25:16 PM 30.0081 -95.3419 87° East 143 165 400 -254 Descending Houston Center

Login

Don't have an account? Register now (free) for customized features, flight alerts, and more!